Tripoli, Libya
Current Conditions -  °F | °C
As of 11:50 PM on Tuesday 21 Oct 2014 (Local Time) from HLLM Reporting Station
Broken Clouds Broken Clouds  
Wind Chill: 73°   Ceiling: 3000
Heat Index: 73°   Visibility: 5mi
Dew Point: 61°   Wind: 2mph
Humidity: 65%   Direction: 270°W
Pressure: 30.03"   Gusts: NA
Location:  32.87°N, 13.18°E
Report Text: HLLM 212050Z 27002KT 8000 BKN030 23/16 Q1017
Loading
Personal Weather Stations






























Interactive Weather Map
Tropical Storm Tracking
New forecast layout! Learn more

10-Day Weather Forecast

Advertisements
Track Severe Weather on mobile